createdAt,value
2017-02-09T00:00:11.704Z,945.8
2017-02-09T00:01:20.042Z,945.8
2017-02-09T00:02:27.875Z,945.8
2017-02-09T00:03:35.964Z,945.8
2017-02-09T00:04:44.052Z,945.7
2017-02-09T00:05:52.144Z,945.8
2017-02-09T00:07:00.303Z,945.8
2017-02-09T00:08:08.319Z,945.8
2017-02-09T00:09:16.415Z,945.7
2017-02-09T00:10:24.504Z,945.8
2017-02-09T00:11:32.593Z,945.7
2017-02-09T00:12:41.116Z,945.7
2017-02-09T00:13:48.776Z,945.7
2017-02-09T00:14:56.915Z,945.8
2017-02-09T00:16:04.944Z,945.8
2017-02-09T00:17:13.037Z,945.8
2017-02-09T00:18:21.180Z,945.8
2017-02-09T00:19:29.208Z,945.8
2017-02-09T00:20:37.298Z,945.8
2017-02-09T00:21:45.384Z,945.8
2017-02-09T00:22:53.634Z,945.7
2017-02-09T00:24:01.860Z,945.8
2017-02-09T00:25:09.649Z,945.8
2017-02-09T00:26:17.736Z,945.8
2017-02-09T00:27:25.838Z,945.8
2017-02-09T00:28:33.926Z,945.8
2017-02-09T00:29:42.064Z,945.8
2017-02-09T00:30:50.346Z,945.8
2017-02-09T00:31:58.177Z,945.8
2017-02-09T00:33:06.271Z,945.8
2017-02-09T00:34:14.366Z,945.7
2017-02-09T00:35:22.505Z,945.8
2017-02-09T00:36:30.543Z,945.8
2017-02-09T00:37:38.630Z,945.8
2017-02-09T00:38:46.715Z,945.8
2017-02-09T00:39:54.804Z,945.8
2017-02-09T00:41:03.146Z,945.8
2017-02-09T00:42:10.986Z,945.8
2017-02-09T00:43:19.071Z,945.8
2017-02-09T00:44:27.165Z,945.8
2017-02-09T00:45:35.263Z,945.9
2017-02-09T00:46:43.405Z,945.9
2017-02-09T00:47:51.440Z,945.9
2017-02-09T00:48:59.678Z,945.9
2017-02-09T00:50:07.729Z,945.9
2017-02-09T00:51:15.702Z,945.9
2017-02-09T00:52:24.043Z,945.9
2017-02-09T00:53:31.881Z,945.8
2017-02-09T00:54:39.962Z,945.9
2017-02-09T00:55:48.053Z,945.8
2017-02-09T00:56:56.145Z,945.8
2017-02-09T00:58:04.292Z,945.8
2017-02-09T00:59:12.317Z,945.8
2017-02-09T01:00:20.411Z,945.9
2017-02-09T01:01:28.497Z,945.9
2017-02-09T01:02:36.830Z,945.9
2017-02-09T01:03:44.736Z,945.9
2017-02-09T01:04:52.763Z,945.8
2017-02-09T01:06:00.850Z,945.9
2017-02-09T01:07:08.936Z,945.8
2017-02-09T01:08:17.030Z,945.9
2017-02-09T01:09:25.176Z,945.9
2017-02-09T01:10:33.253Z,945.8
2017-02-09T01:11:41.295Z,945.8
2017-02-09T01:12:49.383Z,945.8
2017-02-09T01:13:57.468Z,945.8
2017-02-09T01:15:05.611Z,945.8
2017-02-09T01:16:13.646Z,945.8
2017-02-09T01:17:21.759Z,945.8
2017-02-09T01:18:29.936Z,945.8
2017-02-09T01:19:37.912Z,945.8
2017-02-09T01:20:46.057Z,945.8
2017-02-09T01:21:54.146Z,945.8
2017-02-09T01:23:02.171Z,945.8
2017-02-09T01:24:10.266Z,945.9
2017-02-09T01:25:18.348Z,945.8
2017-02-09T01:26:26.556Z,945.8
2017-02-09T01:27:34.528Z,945.8
2017-02-09T01:28:42.614Z,945.8
2017-02-09T01:29:50.702Z,945.8
2017-02-09T01:30:58.789Z,945.8
2017-02-09T01:32:06.945Z,945.8
2017-02-09T01:33:15.012Z,945.8
2017-02-09T01:34:23.118Z,945.7
2017-02-09T01:35:31.156Z,945.8
2017-02-09T01:36:39.272Z,945.7
2017-02-09T01:37:47.447Z,945.7
2017-02-09T01:38:55.414Z,945.8
2017-02-09T01:40:03.504Z,945.8
2017-02-09T01:41:11.595Z,945.7
2017-02-09T01:42:19.682Z,945.7
2017-02-09T01:43:27.837Z,945.7
2017-02-09T01:44:35.869Z,945.7
2017-02-09T01:45:43.956Z,945.7
2017-02-09T01:46:52.054Z,945.7
2017-02-09T01:48:00.279Z,945.6
2017-02-09T01:49:08.400Z,945.6
2017-02-09T01:50:16.364Z,945.6
2017-02-09T01:51:24.408Z,945.6
2017-02-09T01:52:32.493Z,945.7
2017-02-09T01:53:40.580Z,945.6
2017-02-09T01:54:48.794Z,945.6
2017-02-09T01:55:56.761Z,945.5
2017-02-09T01:57:04.856Z,945.5
2017-02-09T01:58:12.938Z,945.5
2017-02-09T01:59:21.092Z,945.5
2017-02-09T02:00:29.179Z,945.5
2017-02-09T02:01:37.205Z,945.5
2017-02-09T02:02:45.296Z,945.5
2017-02-09T02:03:53.454Z,945.5
2017-02-09T02:05:01.472Z,945.5
2017-02-09T02:06:09.676Z,945.5
2017-02-09T02:07:17.654Z,945.5
2017-02-09T02:08:25.739Z,945.5
2017-02-09T02:09:33.827Z,945.5
2017-02-09T02:10:41.920Z,945.4
2017-02-09T02:11:50.057Z,945.4
2017-02-09T02:12:58.084Z,945.5
2017-02-09T02:14:06.285Z,945.5
2017-02-09T02:15:14.376Z,945.5
2017-02-09T02:16:22.349Z,945.5
2017-02-09T02:17:30.553Z,945.5
2017-02-09T02:18:38.702Z,945.5
2017-02-09T02:19:46.618Z,945.5
2017-02-09T02:20:54.707Z,945.5
2017-02-09T02:22:02.847Z,945.5
2017-02-09T02:23:11.006Z,945.5
2017-02-09T02:24:18.976Z,945.5
2017-02-09T02:25:27.116Z,945.5
2017-02-09T02:26:35.153Z,945.5
2017-02-09T02:27:43.242Z,945.5
2017-02-09T02:28:51.386Z,945.4
2017-02-09T02:29:59.417Z,945.4
2017-02-09T02:31:07.506Z,945.4
2017-02-09T02:32:15.594Z,945.4
2017-02-09T02:33:23.683Z,945.4
2017-02-09T02:34:31.827Z,945.4
2017-02-09T02:35:39.943Z,945.4
2017-02-09T02:36:48.008Z,945.4
2017-02-09T02:37:56.162Z,945.4
2017-02-09T02:39:04.136Z,945.4
2017-02-09T02:40:12.279Z,945.4
2017-02-09T02:41:20.308Z,945.4
2017-02-09T02:42:28.396Z,945.4
2017-02-09T02:43:36.492Z,945.4
2017-02-09T02:44:44.584Z,945.4
2017-02-09T02:45:52.719Z,945.3
2017-02-09T02:47:00.838Z,945.4
2017-02-09T02:48:08.844Z,945.4
2017-02-09T02:49:16.926Z,945.3
2017-02-09T02:50:25.017Z,945.3
2017-02-09T02:51:33.428Z,945.4
2017-02-09T02:52:41.190Z,945.3
2017-02-09T02:53:49.333Z,945.3
2017-02-09T02:54:57.372Z,945.3
2017-02-09T02:56:05.460Z,945.3
2017-02-09T02:57:13.606Z,945.2
2017-02-09T02:58:21.704Z,945.3
2017-02-09T02:59:29.725Z,945.2
2017-02-09T03:00:37.830Z,945.2
2017-02-09T03:01:45.919Z,945.2
2017-02-09T03:02:54.303Z,945.2
2017-02-09T03:04:02.096Z,945.3
2017-02-09T03:05:10.183Z,945.2
2017-02-09T03:06:18.277Z,945.2
2017-02-09T03:07:26.366Z,945.2
2017-02-09T03:08:34.513Z,945.2
2017-02-09T03:09:42.601Z,945.2
2017-02-09T03:10:50.633Z,945.2
2017-02-09T03:11:58.718Z,945.2
2017-02-09T03:13:06.806Z,945.2
2017-02-09T03:14:15.087Z,945.2
2017-02-09T03:15:22.991Z,945.2
2017-02-09T03:16:31.077Z,945.2
2017-02-09T03:17:39.171Z,945.2
2017-02-09T03:18:47.449Z,945.2
2017-02-09T03:19:55.404Z,945.2
2017-02-09T03:21:03.427Z,945.2
2017-02-09T03:22:11.520Z,945.2
2017-02-09T03:23:19.647Z,945.2
2017-02-09T03:24:27.694Z,945.2
2017-02-09T03:25:35.909Z,945.2
2017-02-09T03:26:43.876Z,945.2
2017-02-09T03:27:51.958Z,945.2
2017-02-09T03:29:00.197Z,945.2
2017-02-09T03:30:08.139Z,945.2
2017-02-09T03:31:16.284Z,945.2
2017-02-09T03:32:24.320Z,945.2
2017-02-09T03:33:32.403Z,945.2
2017-02-09T03:34:40.495Z,945.2
2017-02-09T03:35:48.582Z,945.1
2017-02-09T03:36:56.789Z,945.1
2017-02-09T03:38:04.761Z,945.1
2017-02-09T03:39:12.955Z,945.1
2017-02-09T03:40:21.037Z,945.1
2017-02-09T03:41:29.078Z,945.1
2017-02-09T03:42:37.232Z,945.2
2017-02-09T03:43:45.209Z,945.1
2017-02-09T03:44:53.280Z,945.1
2017-02-09T03:46:01.375Z,945.2
2017-02-09T03:47:09.462Z,945.2
2017-02-09T03:48:17.604Z,945.1
2017-02-09T03:49:25.636Z,945.1
2017-02-09T03:50:33.870Z,945.1
2017-02-09T03:51:41.807Z,945.1
2017-02-09T03:52:49.897Z,945.1
2017-02-09T03:53:58.110Z,945.0
2017-02-09T03:55:06.099Z,945.1
2017-02-09T03:56:14.159Z,945.0
2017-02-09T03:57:22.312Z,945.0
2017-02-09T03:58:30.347Z,945.0
2017-02-09T03:59:38.491Z,945.1
2017-02-09T04:00:46.517Z,945.1
2017-02-09T04:01:54.738Z,945.0
2017-02-09T04:03:02.696Z,945.1
2017-02-09T04:04:10.774Z,945.1
2017-02-09T04:05:19.194Z,945.0
2017-02-09T04:06:26.956Z,945.1
2017-02-09T04:07:35.515Z,945.0
2017-02-09T04:08:43.221Z,945.0
2017-02-09T04:09:51.219Z,945.0
2017-02-09T04:10:59.361Z,945.0
2017-02-09T04:12:07.386Z,945.0
2017-02-09T04:13:15.604Z,945.1
2017-02-09T04:14:23.576Z,945.0
2017-02-09T04:15:31.656Z,945.1
2017-02-09T04:16:39.801Z,945.1
2017-02-09T04:17:47.832Z,945.1
2017-02-09T04:18:55.922Z,945.1
2017-02-09T04:20:04.005Z,945.1
2017-02-09T04:21:12.098Z,945.0
2017-02-09T04:22:20.302Z,945.0
2017-02-09T04:23:28.336Z,945.0
2017-02-09T04:24:36.358Z,945.0
2017-02-09T04:25:44.449Z,945.0
2017-02-09T04:26:52.533Z,945.0
2017-02-09T04:28:00.937Z,945.0
2017-02-09T04:29:08.768Z,945.0
2017-02-09T04:30:16.797Z,945.0
2017-02-09T04:31:24.886Z,945.0
2017-02-09T04:32:32.983Z,945.0
2017-02-09T04:33:41.146Z,944.9
2017-02-09T04:34:49.159Z,945.0
2017-02-09T04:35:57.245Z,945.0
2017-02-09T04:37:05.328Z,945.0
2017-02-09T04:38:13.476Z,945.0
2017-02-09T04:39:21.701Z,945.0
2017-02-09T04:40:29.587Z,945.0
2017-02-09T04:41:37.674Z,945.0
2017-02-09T04:42:45.797Z,945.0
2017-02-09T04:43:53.845Z,945.0
2017-02-09T04:45:02.057Z,945.0
2017-02-09T04:46:10.024Z,945.0
2017-02-09T04:47:18.117Z,945.0
2017-02-09T04:48:26.208Z,945.0
2017-02-09T04:49:34.409Z,945.0
2017-02-09T04:50:42.428Z,945.0
2017-02-09T04:51:50.499Z,945.1
2017-02-09T04:52:58.560Z,945.0
2017-02-09T04:54:06.643Z,945.0
2017-02-09T04:55:14.740Z,945.0
2017-02-09T04:56:22.942Z,945.1
2017-02-09T04:57:30.905Z,945.0
2017-02-09T04:58:38.990Z,945.1
2017-02-09T04:59:47.219Z,945.0
2017-02-09T05:00:55.386Z,945.0
2017-02-09T05:02:03.303Z,945.0
2017-02-09T05:03:11.337Z,945.1
2017-02-09T05:04:19.433Z,945.0
2017-02-09T05:05:27.516Z,945.0
2017-02-09T05:06:35.669Z,945.1
2017-02-09T05:07:43.812Z,945.1
2017-02-09T05:08:51.777Z,945.0
2017-02-09T05:09:59.862Z,945.0
2017-02-09T05:11:07.946Z,945.1
2017-02-09T05:12:16.040Z,945.0
2017-02-09T05:13:24.186Z,945.0
2017-02-09T05:14:32.215Z,945.1
2017-02-09T05:15:40.301Z,945.0
2017-02-09T05:16:48.455Z,945.0
2017-02-09T05:17:56.485Z,945.0
2017-02-09T05:19:04.691Z,945.0
2017-02-09T05:20:12.662Z,945.0
2017-02-09T05:21:20.880Z,945.0
2017-02-09T05:22:28.833Z,945.0
2017-02-09T05:23:36.917Z,945.0
2017-02-09T05:24:45.064Z,945.0
2017-02-09T05:25:53.092Z,945.0
2017-02-09T05:27:01.178Z,945.0
2017-02-09T05:28:09.325Z,945.0
2017-02-09T05:29:17.361Z,945.0
2017-02-09T05:30:25.565Z,945.0
2017-02-09T05:31:33.536Z,945.0
2017-02-09T05:32:41.685Z,945.0
2017-02-09T05:33:49.710Z,945.0
2017-02-09T05:34:57.792Z,945.0
2017-02-09T05:36:06.006Z,945.1
2017-02-09T05:37:13.973Z,945.1
2017-02-09T05:38:22.103Z,945.1
2017-02-09T05:39:30.175Z,945.0
2017-02-09T05:40:38.237Z,945.1
2017-02-09T05:41:46.380Z,945.1
2017-02-09T05:42:54.407Z,945.0
2017-02-09T05:44:02.642Z,945.1
2017-02-09T05:45:10.587Z,945.0
2017-02-09T05:46:18.674Z,945.0
2017-02-09T05:47:26.816Z,945.0
2017-02-09T05:48:34.969Z,945.0
2017-02-09T05:49:42.930Z,945.0
2017-02-09T05:50:51.020Z,945.0
2017-02-09T05:51:59.112Z,945.0
2017-02-09T05:53:07.254Z,945.1
2017-02-09T05:54:15.418Z,945.0
2017-02-09T05:55:23.388Z,945.0
2017-02-09T05:56:31.454Z,945.0
2017-02-09T05:57:39.539Z,945.0
2017-02-09T05:58:47.744Z,945.0
2017-02-09T05:59:55.717Z,945.0
2017-02-09T06:01:03.803Z,945.0
2017-02-09T06:02:11.884Z,945.0
2017-02-09T06:03:19.984Z,945.0
2017-02-09T06:04:28.127Z,945.0
2017-02-09T06:05:36.232Z,945.1
2017-02-09T06:06:44.244Z,945.1
2017-02-09T06:07:52.345Z,945.0
2017-02-09T06:09:00.442Z,945.1
2017-02-09T06:10:08.638Z,945.0
2017-02-09T06:11:16.605Z,945.1
2017-02-09T06:12:24.697Z,945.1
2017-02-09T06:13:32.784Z,945.0
2017-02-09T06:14:40.866Z,945.1
2017-02-09T06:15:49.317Z,945.1
2017-02-09T06:16:57.136Z,945.1
2017-02-09T06:18:05.138Z,945.1
2017-02-09T06:19:13.229Z,945.1
2017-02-09T06:20:21.372Z,945.1
2017-02-09T06:21:29.461Z,945.1
2017-02-09T06:22:37.486Z,945.0
2017-02-09T06:23:45.586Z,945.1
2017-02-09T06:24:53.677Z,945.0
2017-02-09T06:26:01.755Z,945.1
2017-02-09T06:27:10.066Z,945.1
2017-02-09T06:28:17.936Z,945.1
2017-02-09T06:29:26.018Z,945.2
2017-02-09T06:30:34.108Z,945.1
2017-02-09T06:31:42.192Z,945.1
2017-02-09T06:32:50.333Z,945.1
2017-02-09T06:33:58.364Z,945.1
2017-02-09T06:35:06.455Z,945.1
2017-02-09T06:36:14.669Z,945.1
2017-02-09T06:37:22.721Z,945.1
2017-02-09T06:38:30.851Z,945.1
2017-02-09T06:39:38.809Z,945.1
2017-02-09T06:40:46.974Z,945.0
2017-02-09T06:41:54.983Z,945.1
2017-02-09T06:43:03.277Z,945.1
2017-02-09T06:44:11.286Z,945.1
2017-02-09T06:45:19.259Z,945.0
2017-02-09T06:46:27.344Z,945.0
2017-02-09T06:47:35.747Z,945.0
2017-02-09T06:48:43.517Z,945.0
2017-02-09T06:49:53.165Z,945.0
2017-02-09T06:50:59.692Z,945.0
2017-02-09T06:52:07.896Z,945.0
2017-02-09T06:53:16.048Z,945.0
2017-02-09T06:54:23.949Z,945.0
2017-02-09T06:55:32.286Z,945.0
2017-02-09T06:56:40.124Z,945.0
2017-02-09T06:57:48.203Z,945.0
2017-02-09T06:58:56.296Z,944.9
2017-02-09T07:00:04.385Z,945.0
2017-02-09T07:01:12.527Z,945.0
2017-02-09T07:02:20.826Z,944.9
2017-02-09T07:03:28.655Z,944.9
2017-02-09T07:04:36.851Z,944.9
2017-02-09T07:05:44.825Z,944.9
2017-02-09T07:06:53.034Z,944.9
2017-02-09T07:08:01.057Z,944.9
2017-02-09T07:09:09.082Z,944.9
2017-02-09T07:10:17.211Z,944.9
2017-02-09T07:11:25.855Z,944.9
2017-02-09T07:12:33.401Z,944.9
2017-02-09T07:13:41.439Z,944.9
2017-02-09T07:14:49.595Z,944.9
2017-02-09T07:15:57.614Z,944.9
2017-02-09T07:17:05.694Z,944.9
2017-02-09T07:18:13.913Z,944.9
2017-02-09T07:19:21.879Z,944.9
2017-02-09T07:20:29.966Z,944.9
2017-02-09T07:21:38.144Z,944.9
2017-02-09T07:22:46.138Z,944.9
2017-02-09T07:23:54.355Z,944.9
2017-02-09T07:25:02.313Z,944.8
2017-02-09T07:26:10.408Z,944.8
2017-02-09T07:27:18.490Z,944.8
2017-02-09T07:28:26.574Z,944.8
2017-02-09T07:29:34.715Z,944.8
2017-02-09T07:30:42.751Z,944.8
2017-02-09T07:31:50.838Z,944.8
2017-02-09T07:32:59.097Z,944.8
2017-02-09T07:34:07.017Z,944.8
2017-02-09T07:35:15.223Z,944.8
2017-02-09T07:36:23.186Z,944.8
2017-02-09T07:37:31.283Z,944.8
2017-02-09T07:38:39.370Z,944.8
2017-02-09T07:39:47.518Z,944.8
2017-02-09T07:40:55.667Z,944.8
2017-02-09T07:42:03.943Z,944.8
2017-02-09T07:43:12.400Z,944.8
2017-02-09T07:44:19.821Z,944.8
2017-02-09T07:45:27.910Z,944.8
2017-02-09T07:46:36.115Z,944.8
2017-02-09T07:47:44.084Z,944.8
2017-02-09T07:48:52.172Z,944.8
2017-02-09T07:50:00.265Z,944.8
2017-02-09T07:51:08.349Z,944.8
2017-02-09T07:52:16.710Z,944.8
2017-02-09T07:53:24.528Z,944.8
2017-02-09T07:54:32.615Z,944.9
2017-02-09T07:55:42.325Z,944.9
2017-02-09T07:56:48.785Z,945.0
2017-02-09T07:57:57.023Z,944.9
2017-02-09T07:59:05.051Z,944.9
2017-02-09T08:00:13.066Z,944.9
2017-02-09T08:01:21.157Z,944.9
2017-02-09T08:02:29.327Z,945.0
2017-02-09T08:03:37.452Z,945.0
2017-02-09T08:04:45.423Z,944.9
2017-02-09T08:05:53.518Z,944.9
2017-02-09T08:07:01.762Z,944.9
2017-02-09T08:08:09.695Z,944.9
2017-02-09T08:09:18.188Z,945.0
2017-02-09T08:10:26.450Z,944.9
2017-02-09T08:11:34.090Z,945.0
2017-02-09T08:12:42.050Z,944.9
2017-02-09T08:13:50.179Z,945.0
2017-02-09T08:14:58.283Z,944.9
2017-02-09T08:16:06.317Z,944.9
2017-02-09T08:17:14.544Z,944.9
2017-02-09T08:18:22.649Z,944.9
2017-02-09T08:19:30.585Z,944.8
2017-02-09T08:20:38.792Z,944.9
2017-02-09T08:21:46.761Z,944.9
2017-02-09T08:22:54.843Z,945.0
2017-02-09T08:24:02.972Z,945.0
2017-02-09T08:25:11.214Z,944.9
2017-02-09T08:26:19.160Z,944.9
2017-02-09T08:27:27.254Z,944.9
2017-02-09T08:28:35.282Z,945.0
2017-02-09T08:29:43.370Z,944.9
2017-02-09T08:30:51.468Z,945.0
2017-02-09T08:32:01.562Z,944.9
2017-02-09T08:33:07.629Z,944.9
2017-02-09T08:34:15.722Z,944.9
2017-02-09T08:35:23.985Z,944.8
2017-02-09T08:36:31.900Z,944.8
2017-02-09T08:37:40.114Z,944.8
2017-02-09T08:38:48.429Z,944.8
2017-02-09T08:39:56.164Z,944.8
2017-02-09T08:41:04.561Z,944.8
2017-02-09T08:42:12.354Z,944.8
2017-02-09T08:43:20.493Z,944.8
2017-02-09T08:44:28.524Z,944.8
2017-02-09T08:45:36.615Z,944.8
2017-02-09T08:46:44.703Z,944.7
2017-02-09T08:47:52.814Z,944.8
2017-02-09T08:49:00.993Z,944.7
2017-02-09T08:50:09.169Z,944.7
2017-02-09T08:51:17.051Z,944.8
2017-02-09T08:52:25.493Z,944.7
2017-02-09T08:53:33.239Z,944.8
2017-02-09T08:54:41.381Z,944.8
2017-02-09T08:55:49.407Z,944.8
2017-02-09T08:56:57.496Z,944.8
2017-02-09T08:58:05.644Z,944.8
2017-02-09T08:59:13.727Z,944.8
2017-02-09T09:00:21.817Z,944.8
2017-02-09T09:01:29.848Z,944.8
2017-02-09T09:02:37.931Z,944.8
2017-02-09T09:03:46.083Z,944.8
2017-02-09T09:04:54.111Z,944.8
2017-02-09T09:06:02.256Z,944.8
2017-02-09T09:07:10.462Z,944.8
2017-02-09T09:08:19.046Z,944.8
2017-02-09T09:09:26.460Z,944.8
2017-02-09T09:10:34.549Z,944.8
2017-02-09T09:11:42.757Z,944.8
2017-02-09T09:12:50.727Z,944.8
2017-02-09T09:13:58.879Z,944.8
2017-02-09T09:15:07.006Z,944.8
2017-02-09T09:16:15.046Z,944.8
2017-02-09T09:17:23.197Z,944.8
2017-02-09T09:18:31.358Z,944.7
2017-02-09T09:19:39.434Z,944.8
2017-02-09T09:20:47.336Z,944.8
2017-02-09T09:21:55.423Z,944.7
2017-02-09T09:23:03.628Z,944.7
2017-02-09T09:24:11.597Z,944.8
2017-02-09T09:25:19.714Z,944.7
2017-02-09T09:26:27.767Z,944.7
2017-02-09T09:27:35.852Z,944.7
2017-02-09T09:28:44.062Z,944.7
2017-02-09T09:29:52.180Z,944.8
2017-02-09T09:31:05.623Z,944.7
2017-02-09T09:32:08.203Z,944.8
2017-02-09T09:33:16.289Z,944.7
2017-02-09T09:34:24.495Z,944.7
2017-02-09T09:35:32.459Z,944.7
2017-02-09T09:36:40.563Z,944.6
2017-02-09T09:37:48.971Z,944.7
2017-02-09T09:38:56.808Z,944.7
2017-02-09T09:40:04.997Z,944.7
2017-02-09T09:41:13.025Z,944.7
2017-02-09T09:42:20.983Z,944.7
2017-02-09T09:43:29.077Z,944.7
2017-02-09T09:44:37.177Z,944.7
2017-02-09T09:45:45.390Z,944.7
2017-02-09T09:46:53.408Z,944.7
2017-02-09T09:48:01.445Z,944.7
2017-02-09T09:49:09.530Z,944.7
2017-02-09T09:50:17.613Z,944.7
2017-02-09T09:51:25.891Z,944.8
2017-02-09T09:52:33.791Z,944.6
2017-02-09T09:53:41.877Z,944.7
2017-02-09T09:54:49.965Z,944.7
2017-02-09T09:55:58.058Z,944.6
2017-02-09T09:57:06.198Z,944.6
2017-02-09T09:58:14.229Z,944.6
2017-02-09T09:59:22.316Z,944.6
2017-02-09T10:00:30.404Z,944.7
2017-02-09T10:01:38.672Z,944.6
2017-02-09T10:02:46.800Z,944.7
2017-02-09T10:03:54.674Z,944.6
2017-02-09T10:05:02.761Z,944.7
2017-02-09T10:06:10.842Z,944.7
2017-02-09T10:07:18.933Z,944.6
2017-02-09T10:08:27.141Z,944.6
2017-02-09T10:09:35.107Z,944.6
2017-02-09T10:10:43.194Z,944.6
2017-02-09T10:11:51.286Z,944.6
2017-02-09T10:12:59.440Z,944.6
2017-02-09T10:14:07.585Z,944.6
2017-02-09T10:15:15.557Z,944.6
2017-02-09T10:16:23.640Z,944.6
2017-02-09T10:17:31.723Z,944.6
2017-02-09T10:18:39.933Z,944.6
2017-02-09T10:19:47.962Z,944.6
2017-02-09T10:20:55.992Z,944.6
2017-02-09T10:22:04.085Z,944.6
2017-02-09T10:23:12.181Z,944.6
2017-02-09T10:24:20.275Z,944.6
2017-02-09T10:25:28.482Z,944.7
2017-02-09T10:26:36.448Z,944.7
2017-02-09T10:27:44.543Z,944.7
2017-02-09T10:28:52.634Z,944.6
2017-02-09T10:30:00.717Z,944.7
2017-02-09T10:31:08.931Z,944.7
2017-02-09T10:32:16.898Z,944.6
2017-02-09T10:33:24.984Z,944.6
2017-02-09T10:34:33.204Z,944.6
2017-02-09T10:35:41.165Z,944.6
2017-02-09T10:36:49.373Z,944.7
2017-02-09T10:37:57.339Z,944.6
2017-02-09T10:39:05.424Z,944.6
2017-02-09T10:40:13.512Z,944.6
2017-02-09T10:41:21.596Z,944.6
2017-02-09T10:42:29.804Z,944.6
2017-02-09T10:43:37.780Z,944.6
2017-02-09T10:44:45.867Z,944.6
2017-02-09T10:45:54.037Z,944.6
2017-02-09T10:47:02.045Z,944.6
2017-02-09T10:48:10.255Z,944.6
2017-02-09T10:49:18.215Z,944.6
2017-02-09T10:50:26.361Z,944.6
2017-02-09T10:51:34.393Z,944.6
2017-02-09T10:52:42.699Z,944.6
2017-02-09T10:53:50.999Z,944.5
2017-02-09T10:54:58.840Z,944.5
2017-02-09T10:56:06.829Z,944.5
2017-02-09T10:57:15.068Z,944.5
2017-02-09T10:58:23.037Z,944.5
2017-02-09T10:59:31.986Z,944.5
2017-02-09T11:00:39.291Z,944.5
2017-02-09T11:01:47.375Z,944.5
2017-02-09T11:02:55.719Z,944.5
2017-02-09T11:04:03.459Z,944.5
2017-02-09T11:05:12.090Z,944.5
2017-02-09T11:06:20.486Z,944.5
2017-02-09T11:07:28.277Z,944.5
2017-02-09T11:08:36.083Z,944.5
2017-02-09T11:09:44.307Z,944.5
2017-02-09T11:10:54.044Z,944.4
2017-02-09T11:11:59.989Z,944.4
2017-02-09T11:13:08.545Z,944.4
2017-02-09T11:14:16.235Z,944.4
2017-02-09T11:15:24.620Z,944.4
2017-02-09T11:16:33.316Z,944.3
2017-02-09T11:17:40.627Z,944.3
2017-02-09T11:18:48.834Z,944.3
2017-02-09T11:19:56.700Z,944.3
2017-02-09T11:21:04.674Z,944.3
2017-02-09T11:22:12.818Z,944.3
2017-02-09T11:23:20.855Z,944.3
2017-02-09T11:24:28.943Z,944.2
2017-02-09T11:25:37.027Z,944.2
2017-02-09T11:26:45.119Z,944.2
2017-02-09T11:27:55.339Z,944.1
2017-02-09T11:29:01.291Z,944.1
2017-02-09T11:30:09.381Z,944.0
2017-02-09T11:31:17.469Z,944.1
2017-02-09T11:32:25.556Z,944.0
2017-02-09T11:33:33.759Z,944.0
2017-02-09T11:34:41.735Z,944.0
2017-02-09T11:35:49.877Z,943.9
2017-02-09T11:36:57.973Z,943.9
2017-02-09T11:38:06.353Z,943.9
2017-02-09T11:39:15.917Z,943.9
2017-02-09T11:40:22.196Z,943.8
2017-02-09T11:41:30.267Z,943.8
2017-02-09T11:42:38.362Z,943.8
2017-02-09T11:43:46.470Z,943.8
2017-02-09T11:44:54.651Z,943.7
2017-02-09T11:46:02.622Z,943.8
2017-02-09T11:47:10.714Z,943.8
2017-02-09T11:48:18.965Z,943.7
2017-02-09T11:49:26.877Z,943.7
2017-02-09T11:50:35.188Z,943.7
2017-02-09T11:51:43.062Z,943.7
2017-02-09T11:52:51.149Z,943.7
2017-02-09T11:53:59.361Z,943.7
2017-02-09T11:55:07.330Z,943.7
2017-02-09T11:56:15.470Z,943.7
2017-02-09T11:57:23.496Z,943.7
2017-02-09T11:58:31.586Z,943.6
2017-02-09T11:59:39.675Z,943.6
2017-02-09T12:00:47.819Z,943.7
2017-02-09T12:01:56.051Z,943.7
2017-02-09T12:03:03.932Z,943.7
2017-02-09T12:04:12.015Z,943.7
2017-02-09T12:05:20.102Z,943.7
2017-02-09T12:06:28.199Z,943.7
2017-02-09T12:07:36.404Z,943.8
2017-02-09T12:08:44.371Z,943.8
2017-02-09T12:09:52.515Z,943.8
2017-02-09T12:11:00.555Z,943.9
2017-02-09T12:12:08.727Z,943.8
2017-02-09T12:13:16.783Z,943.8
2017-02-09T12:14:24.822Z,943.9
2017-02-09T12:15:32.912Z,943.8
2017-02-09T12:16:40.996Z,943.9
2017-02-09T12:17:49.110Z,943.8
2017-02-09T12:18:59.115Z,943.8
2017-02-09T12:20:05.257Z,943.9
2017-02-09T12:21:13.345Z,943.8
2017-02-09T12:22:21.430Z,943.8
2017-02-09T12:23:29.718Z,943.8
2017-02-09T12:24:37.660Z,943.8
2017-02-09T12:25:45.816Z,943.8
2017-02-09T12:26:53.891Z,943.8
2017-02-09T12:28:01.880Z,943.8
2017-02-09T12:29:09.998Z,943.7
2017-02-09T12:30:18.105Z,943.7
2017-02-09T12:31:26.136Z,943.7
2017-02-09T12:32:34.220Z,943.6
2017-02-09T12:33:42.313Z,943.6
2017-02-09T12:34:50.410Z,943.6
2017-02-09T12:35:58.607Z,943.6
2017-02-09T12:37:06.577Z,943.6
2017-02-09T12:38:14.663Z,943.5
2017-02-09T12:39:22.751Z,943.5
2017-02-09T12:40:30.842Z,943.5
2017-02-09T12:41:39.053Z,943.5
2017-02-09T12:42:47.014Z,943.5
2017-02-09T12:43:55.155Z,943.6
2017-02-09T12:45:03.333Z,943.5
2017-02-09T12:46:11.275Z,943.5
2017-02-09T12:47:19.422Z,943.5
2017-02-09T12:48:27.456Z,943.5
2017-02-09T12:49:35.546Z,943.4
2017-02-09T12:50:43.639Z,943.5
2017-02-09T12:51:52.418Z,943.4
2017-02-09T12:52:59.935Z,943.5
2017-02-09T12:54:07.901Z,943.5
2017-02-09T12:55:16.093Z,943.5
2017-02-09T12:56:24.162Z,943.5
2017-02-09T12:57:32.285Z,943.6
2017-02-09T12:58:40.311Z,943.5
2017-02-09T12:59:48.338Z,943.5
2017-02-09T13:00:56.427Z,943.5
2017-02-09T13:02:04.519Z,943.5
2017-02-09T13:03:12.603Z,943.5
2017-02-09T13:04:20.809Z,943.6
2017-02-09T13:05:28.782Z,943.5
2017-02-09T13:06:36.933Z,943.6
2017-02-09T13:07:44.949Z,943.6
2017-02-09T13:08:53.042Z,943.6
2017-02-09T13:10:01.181Z,943.6
2017-02-09T13:11:09.414Z,943.6
2017-02-09T13:12:17.305Z,943.6
2017-02-09T13:13:25.515Z,943.6
2017-02-09T13:14:33.481Z,943.6
2017-02-09T13:15:41.623Z,943.6
2017-02-09T13:16:49.688Z,943.6
2017-02-09T13:17:57.783Z,943.7
2017-02-09T13:19:05.830Z,943.6
2017-02-09T13:20:13.917Z,943.6
2017-02-09T13:21:22.328Z,943.5
2017-02-09T13:22:30.285Z,943.6
2017-02-09T13:23:38.181Z,943.6
2017-02-09T13:24:46.271Z,943.5
2017-02-09T13:25:54.366Z,943.5
2017-02-09T13:27:02.571Z,943.5
2017-02-09T13:28:10.540Z,943.5
2017-02-09T13:29:18.681Z,943.4
2017-02-09T13:30:26.713Z,943.4
2017-02-09T13:31:34.807Z,943.5
2017-02-09T13:32:43.165Z,943.5
2017-02-09T13:33:50.984Z,943.5
2017-02-09T13:34:59.067Z,943.5
2017-02-09T13:36:07.164Z,943.5
2017-02-09T13:37:15.253Z,943.4
2017-02-09T13:38:23.463Z,943.4
2017-02-09T13:39:31.435Z,943.4
2017-02-09T13:40:39.526Z,943.4
2017-02-09T13:41:47.613Z,943.4
2017-02-09T13:42:55.696Z,943.4
2017-02-09T13:44:03.986Z,943.4
2017-02-09T13:45:11.998Z,943.4
2017-02-09T13:46:20.409Z,943.4
2017-02-09T13:47:28.043Z,943.4
2017-02-09T13:48:36.141Z,943.4
2017-02-09T13:49:44.353Z,943.4
2017-02-09T13:50:52.309Z,943.4
2017-02-09T13:52:00.402Z,943.4
2017-02-09T13:53:08.494Z,943.4
2017-02-09T13:54:16.722Z,943.4
2017-02-09T13:55:24.794Z,943.4
2017-02-09T13:56:32.767Z,943.5
2017-02-09T13:57:40.851Z,943.5
2017-02-09T13:58:48.936Z,943.5
2017-02-09T13:59:57.025Z,943.5
2017-02-09T14:01:05.230Z,943.5
2017-02-09T14:02:13.194Z,943.5
2017-02-09T14:03:21.283Z,943.5
2017-02-09T14:04:29.380Z,943.5
2017-02-09T14:05:37.474Z,943.5
2017-02-09T14:06:45.675Z,943.5
2017-02-09T14:07:53.645Z,943.5
2017-02-09T14:09:01.746Z,943.5
2017-02-09T14:10:09.836Z,943.5
2017-02-09T14:11:17.917Z,943.5
2017-02-09T14:12:26.137Z,943.5
2017-02-09T14:13:34.103Z,943.5
2017-02-09T14:14:42.190Z,943.6
2017-02-09T14:15:50.307Z,943.6
2017-02-09T14:16:58.424Z,943.6
2017-02-09T14:18:06.573Z,943.6
2017-02-09T14:19:14.543Z,943.5
2017-02-09T14:20:22.824Z,943.5
2017-02-09T14:21:30.893Z,943.5
2017-02-09T14:22:38.813Z,943.5
2017-02-09T14:23:46.953Z,943.4
2017-02-09T14:24:54.984Z,943.4
2017-02-09T14:26:03.068Z,943.3
2017-02-09T14:27:11.156Z,943.2
2017-02-09T14:28:19.244Z,943.2
2017-02-09T14:29:27.386Z,943.3
2017-02-09T14:30:35.423Z,943.3
2017-02-09T14:31:43.617Z,943.3
2017-02-09T14:32:51.657Z,943.3
2017-02-09T14:33:59.687Z,943.4
2017-02-09T14:35:07.830Z,943.4
2017-02-09T14:36:15.863Z,943.3